createdAt,value
2019-05-17T00:00:44.255Z,22.60
2019-05-17T00:01:43.179Z,22.10
2019-05-17T00:02:43.244Z,21.70
2019-05-17T00:03:43.112Z,22.60
2019-05-17T00:04:43.159Z,23.00
2019-05-17T00:05:43.060Z,21.60
2019-05-17T00:06:43.072Z,21.10
2019-05-17T00:07:43.012Z,22.00
2019-05-17T00:08:43.180Z,21.30
2019-05-17T00:09:42.941Z,21.60
2019-05-17T00:10:42.908Z,21.50
2019-05-17T00:11:42.888Z,21.70
2019-05-17T00:12:42.857Z,21.60
2019-05-17T00:13:43.005Z,21.30
2019-05-17T00:14:43.124Z,21.40
2019-05-17T00:15:43.066Z,22.00
2019-05-17T00:16:43.085Z,20.80
2019-05-17T00:17:42.707Z,21.40
2019-05-17T00:18:42.679Z,21.00
2019-05-17T00:19:50.385Z,21.80
2019-05-17T00:20:42.614Z,21.20
2019-05-17T00:21:43.738Z,21.30
2019-05-17T00:22:42.556Z,21.00
2019-05-17T00:23:46.779Z,21.30
2019-05-17T00:24:42.493Z,21.00
2019-05-17T00:25:57.425Z,20.90
2019-05-17T00:26:42.445Z,21.10
2019-05-17T00:27:42.523Z,21.10
2019-05-17T00:28:42.382Z,21.00
2019-05-17T00:29:42.357Z,21.20
2019-05-17T00:30:42.441Z,20.10
2019-05-17T00:31:42.300Z,21.10
2019-05-17T00:32:42.344Z,21.00
2019-05-17T00:33:42.238Z,20.80
2019-05-17T00:34:42.355Z,20.60
2019-05-17T00:35:42.176Z,21.40
2019-05-17T00:36:42.292Z,21.60
2019-05-17T00:37:42.123Z,20.70
2019-05-17T00:38:48.245Z,20.20
2019-05-17T00:39:42.197Z,20.70
2019-05-17T00:40:42.032Z,21.80
2019-05-17T00:41:42.103Z,20.50
2019-05-17T00:42:41.967Z,20.10
2019-05-17T00:43:42.023Z,20.80
2019-05-17T00:44:41.936Z,20.40
2019-05-17T00:45:41.991Z,21.50
2019-05-17T00:46:41.846Z,21.90
2019-05-17T00:47:41.887Z,20.90
2019-05-17T00:48:41.801Z,22.10
2019-05-17T00:49:41.860Z,20.70
2019-05-17T00:50:41.757Z,20.30
2019-05-17T00:51:41.866Z,20.90
2019-05-17T00:52:41.677Z,21.60
2019-05-17T00:53:41.775Z,21.20
2019-05-17T00:54:41.622Z,20.70
2019-05-17T00:55:41.699Z,20.20
2019-05-17T00:56:41.562Z,20.60
2019-05-17T00:57:41.701Z,20.80
2019-05-17T00:58:41.519Z,21.50
2019-05-17T00:59:41.618Z,20.40
2019-05-17T01:00:41.441Z,20.00
2019-05-17T01:01:41.525Z,20.40
2019-05-17T01:02:41.385Z,21.00
2019-05-17T01:03:41.441Z,20.60
2019-05-17T01:04:41.351Z,20.60
2019-05-17T01:05:41.485Z,19.80
2019-05-17T01:06:41.262Z,22.10
2019-05-17T01:07:41.366Z,21.20
2019-05-17T01:08:41.205Z,21.20
2019-05-17T01:09:41.281Z,21.20
2019-05-17T01:10:41.149Z,20.00
2019-05-17T01:11:41.294Z,20.90
2019-05-17T01:12:41.090Z,20.30
2019-05-17T01:13:41.200Z,21.60
2019-05-17T01:14:41.023Z,20.30
2019-05-17T01:15:41.111Z,20.30
2019-05-17T01:16:40.966Z,20.00
2019-05-17T01:17:41.029Z,19.60
2019-05-17T01:18:40.909Z,20.50
2019-05-17T01:19:41.054Z,19.60
2019-05-17T01:20:40.849Z,18.90
2019-05-17T01:21:40.957Z,20.20
2019-05-17T01:22:40.795Z,19.80
2019-05-17T01:23:40.868Z,20.00
2019-05-17T01:24:40.730Z,20.10
2019-05-17T01:25:40.883Z,19.50
2019-05-17T01:26:40.682Z,19.00
2019-05-17T01:27:40.800Z,19.90
2019-05-17T01:28:40.614Z,19.70
2019-05-17T01:29:40.699Z,20.30
2019-05-17T01:30:40.557Z,19.80
2019-05-17T01:31:40.716Z,19.20
2019-05-17T01:32:40.495Z,19.50
2019-05-17T01:33:40.464Z,19.70
2019-05-17T01:34:40.440Z,19.20
2019-05-17T01:35:40.415Z,19.70
2019-05-17T01:36:40.380Z,20.20
2019-05-17T01:37:40.347Z,20.00
2019-05-17T01:38:40.319Z,19.50
2019-05-17T01:39:40.302Z,19.70
2019-05-17T01:40:40.265Z,19.10
2019-05-17T01:41:40.231Z,20.00
2019-05-17T01:42:40.386Z,20.00
2019-05-17T01:43:40.172Z,19.80
2019-05-17T01:44:40.296Z,19.10
2019-05-17T01:45:40.114Z,19.00
2019-05-17T01:46:40.205Z,19.00
2019-05-17T01:47:40.059Z,20.10
2019-05-17T01:48:41.139Z,19.70
2019-05-17T01:49:39.997Z,20.50
2019-05-17T01:50:40.134Z,20.10
2019-05-17T01:51:39.935Z,19.50
2019-05-17T01:52:40.029Z,19.60
2019-05-17T01:53:39.894Z,19.60
2019-05-17T01:54:39.952Z,19.20
2019-05-17T01:55:39.821Z,19.00
2019-05-17T01:56:39.963Z,19.40
2019-05-17T01:57:39.764Z,18.00
2019-05-17T01:58:39.872Z,19.00
2019-05-17T01:59:39.708Z,18.30
2019-05-17T02:00:39.786Z,18.60
2019-05-17T02:01:39.642Z,18.50
2019-05-17T02:02:39.798Z,19.20
2019-05-17T02:03:39.583Z,19.10
2019-05-17T02:04:39.704Z,18.60
2019-05-17T02:05:39.527Z,18.70
2019-05-17T02:06:39.621Z,18.40
2019-05-17T02:07:39.467Z,18.60
2019-05-17T02:08:39.635Z,18.10
2019-05-17T02:09:41.782Z,18.50
2019-05-17T02:10:39.547Z,17.80
2019-05-17T02:11:39.359Z,19.40
2019-05-17T02:12:39.461Z,18.90
2019-05-17T02:13:39.286Z,19.40
2019-05-17T02:14:39.373Z,18.60
2019-05-17T02:15:39.248Z,18.60
2019-05-17T02:16:39.295Z,19.20
2019-05-17T02:17:39.168Z,18.90
2019-05-17T02:18:39.148Z,18.90
2019-05-17T02:19:39.105Z,19.00
2019-05-17T02:20:39.091Z,19.60
2019-05-17T02:21:39.229Z,19.20
2019-05-17T02:22:39.022Z,19.40
2019-05-17T02:23:38.998Z,19.90
2019-05-17T02:24:39.053Z,19.70
2019-05-17T02:25:38.939Z,18.80
2019-05-17T02:26:38.908Z,18.50
2019-05-17T02:27:41.932Z,19.90
2019-05-17T02:28:38.847Z,19.30
2019-05-17T02:29:38.811Z,19.40
2019-05-17T02:30:38.787Z,19.60
2019-05-17T02:31:38.763Z,18.70
2019-05-17T02:32:38.735Z,19.20
2019-05-17T02:33:38.703Z,18.30
2019-05-17T02:34:38.676Z,19.30
2019-05-17T02:35:38.632Z,18.90
2019-05-17T02:36:38.724Z,19.20
2019-05-17T02:37:38.582Z,19.00
2019-05-17T02:38:38.548Z,18.50
2019-05-17T02:39:57.049Z,18.70
2019-05-17T02:40:38.500Z,19.40
2019-05-17T02:41:38.502Z,18.10
2019-05-17T02:42:38.559Z,18.10
2019-05-17T02:43:38.405Z,18.10
2019-05-17T02:44:38.464Z,18.90
2019-05-17T02:45:38.345Z,19.10
2019-05-17T02:46:38.381Z,18.30
2019-05-17T02:47:38.292Z,18.70
2019-05-17T02:48:38.290Z,18.50
2019-05-17T02:49:38.223Z,18.40
2019-05-17T02:50:38.313Z,18.80
2019-05-17T02:51:38.165Z,18.40
2019-05-17T02:52:38.323Z,18.40
2019-05-17T02:53:38.099Z,18.50
2019-05-17T02:54:38.136Z,18.40
2019-05-17T02:55:38.046Z,18.60
2019-05-17T02:56:44.975Z,17.40
2019-05-17T02:57:37.980Z,18.00
2019-05-17T02:58:39.048Z,17.70
2019-05-17T02:59:37.924Z,18.10
2019-05-17T03:00:38.039Z,18.20
2019-05-17T03:01:37.872Z,18.30
2019-05-17T03:02:44.916Z,17.20
2019-05-17T03:03:37.808Z,17.70
2019-05-17T03:04:37.862Z,17.90
2019-05-17T03:05:37.752Z,17.80
2019-05-17T03:06:37.930Z,17.60
2019-05-17T03:07:37.706Z,18.40
2019-05-17T03:08:37.783Z,18.30
2019-05-17T03:09:37.631Z,17.90
2019-05-17T03:10:37.794Z,18.30
2019-05-17T03:11:37.572Z,17.90
2019-05-17T03:12:37.712Z,18.20
2019-05-17T03:13:37.539Z,18.20
2019-05-17T03:14:37.617Z,18.30
2019-05-17T03:15:37.457Z,17.40
2019-05-17T03:16:37.644Z,17.70
2019-05-17T03:17:37.386Z,17.70
2019-05-17T03:18:37.542Z,18.40
2019-05-17T03:19:37.343Z,18.10
2019-05-17T03:20:37.458Z,18.50
2019-05-17T03:21:37.297Z,19.00
2019-05-17T03:22:37.477Z,19.00
2019-05-17T03:23:37.224Z,18.50
2019-05-17T03:24:37.392Z,18.40
2019-05-17T03:25:37.164Z,18.60
2019-05-17T03:26:37.286Z,18.10
2019-05-17T03:27:37.112Z,19.10
2019-05-17T03:28:37.207Z,19.20
2019-05-17T03:29:37.033Z,19.20
2019-05-17T03:30:37.659Z,18.30
2019-05-17T03:31:44.633Z,19.10
2019-05-17T03:32:37.315Z,19.60
2019-05-17T03:33:37.153Z,18.40
2019-05-17T03:34:37.810Z,18.80
2019-05-17T03:35:38.522Z,19.30
2019-05-17T03:36:37.157Z,18.70
2019-05-17T03:37:38.096Z,19.60
2019-05-17T03:38:36.798Z,19.70
2019-05-17T03:39:36.879Z,20.10
2019-05-17T03:41:03.250Z,18.80
2019-05-17T03:41:36.686Z,18.70
2019-05-17T03:42:36.703Z,19.70
2019-05-17T03:43:40.330Z,19.50
2019-05-17T03:44:36.748Z,19.70
2019-05-17T03:45:36.597Z,18.40
2019-05-17T03:46:36.621Z,17.90
2019-05-17T03:47:36.506Z,19.50
2019-05-17T03:48:36.524Z,18.80
2019-05-17T03:49:39.316Z,19.10
2019-05-17T03:50:36.543Z,19.10
2019-05-17T03:51:36.400Z,18.00
2019-05-17T03:52:36.357Z,19.20
2019-05-17T03:53:36.334Z,18.30
2019-05-17T03:54:36.300Z,17.50
2019-05-17T03:55:36.268Z,18.80
2019-05-17T03:56:36.236Z,17.50
2019-05-17T03:57:36.204Z,18.00
2019-05-17T03:58:36.198Z,17.30
2019-05-17T03:59:36.150Z,16.90
2019-05-17T04:00:36.118Z,17.00
2019-05-17T04:01:36.084Z,16.70
2019-05-17T04:02:36.055Z,16.60
2019-05-17T04:03:36.042Z,16.40
2019-05-17T04:04:35.995Z,16.30
2019-05-17T04:05:58.036Z,16.00
2019-05-17T04:06:35.937Z,15.80
2019-05-17T04:07:37.981Z,15.40
2019-05-17T04:08:35.887Z,15.50
2019-05-17T04:09:43.949Z,15.70
2019-05-17T04:10:35.833Z,15.30
2019-05-17T04:11:53.228Z,15.70
2019-05-17T04:12:35.760Z,15.00
2019-05-17T04:13:56.726Z,15.30
2019-05-17T04:14:35.709Z,16.10
2019-05-17T04:15:37.729Z,15.90
2019-05-17T04:16:35.644Z,15.30
2019-05-17T04:17:37.764Z,15.20
2019-05-17T04:18:35.591Z,14.80
2019-05-17T04:19:53.248Z,15.00
2019-05-17T04:20:35.519Z,14.60
2019-05-17T04:21:35.625Z,14.40
2019-05-17T04:22:35.462Z,13.40
2019-05-17T04:23:35.536Z,14.70
2019-05-17T04:24:35.399Z,13.40
2019-05-17T04:25:38.744Z,14.00
2019-05-17T04:26:35.342Z,15.00
2019-05-17T04:27:56.308Z,14.00
2019-05-17T04:28:35.296Z,13.60
2019-05-17T04:29:35.271Z,13.70
2019-05-17T04:30:56.270Z,13.50
2019-05-17T04:31:35.270Z,14.60
2019-05-17T04:32:35.175Z,13.80
2019-05-17T04:33:42.754Z,14.10
2019-05-17T04:34:35.105Z,14.10
2019-05-17T04:43:55.794Z,13.40
2019-05-17T04:44:55.842Z,13.40
2019-05-17T04:46:49.341Z,14.90
2019-05-17T04:47:49.251Z,13.30
2019-05-17T04:48:49.199Z,13.90
2019-05-17T04:49:49.210Z,13.70
2019-05-17T04:50:49.147Z,14.50
2019-05-17T04:51:52.380Z,13.50
2019-05-17T04:52:49.087Z,14.50
2019-05-17T04:53:52.716Z,14.20
2019-05-17T04:54:49.036Z,14.10
2019-05-17T04:55:48.975Z,14.50
2019-05-17T04:56:48.954Z,13.30
2019-05-17T04:57:48.923Z,13.70
2019-05-17T04:58:50.296Z,14.60
2019-05-17T04:59:48.874Z,14.60
2019-05-17T05:00:48.831Z,14.20
2019-05-17T05:01:48.804Z,13.60
2019-05-17T05:02:48.779Z,13.50
2019-05-17T05:03:48.772Z,13.70
2019-05-17T05:04:48.712Z,13.10
2019-05-17T05:05:48.685Z,14.10
2019-05-17T05:06:48.663Z,13.50
2019-05-17T05:07:48.621Z,13.40
2019-05-17T05:08:48.593Z,13.40
2019-05-17T05:09:48.575Z,14.20
2019-05-17T05:10:48.539Z,14.10
2019-05-17T05:11:57.173Z,13.50
2019-05-17T05:12:48.485Z,13.40
2019-05-17T05:13:48.453Z,12.80
2019-05-17T05:14:48.409Z,12.70
2019-05-17T05:15:48.383Z,13.60
2019-05-17T05:17:09.367Z,12.90
2019-05-17T05:17:48.335Z,13.10
2019-05-17T05:18:56.357Z,13.00
2019-05-17T05:19:48.281Z,13.20
2019-05-17T05:21:03.906Z,13.90
2019-05-17T05:21:48.213Z,13.40
2019-05-17T05:23:16.325Z,13.10
2019-05-17T05:23:48.147Z,13.10
2019-05-17T05:24:48.287Z,12.70
2019-05-17T05:25:48.088Z,13.30
2019-05-17T05:26:48.059Z,12.60
2019-05-17T05:27:48.033Z,13.00
2019-05-17T05:28:49.669Z,13.20
2019-05-17T05:29:48.113Z,12.70
2019-05-17T05:30:48.208Z,12.40
2019-05-17T05:31:47.924Z,12.60
2019-05-17T05:32:47.879Z,12.10
2019-05-17T05:33:47.884Z,13.50
2019-05-17T05:34:47.857Z,12.00
2019-05-17T05:35:47.786Z,12.60
2019-05-17T05:36:47.765Z,12.50
2019-05-17T05:37:47.746Z,13.00
2019-05-17T05:38:47.706Z,12.30
2019-05-17T05:39:47.676Z,11.60
2019-05-17T05:40:47.641Z,11.80
2019-05-17T05:41:47.683Z,12.30
2019-05-17T05:42:47.583Z,11.90
2019-05-17T05:43:47.560Z,11.30
2019-05-17T05:44:47.527Z,11.10
2019-05-17T05:45:47.495Z,11.10
2019-05-17T05:46:47.523Z,10.90
2019-05-17T05:47:47.440Z,11.60
2019-05-17T05:48:47.529Z,10.60
2019-05-17T05:49:47.378Z,10.90
2019-05-17T05:50:47.439Z,10.90
2019-05-17T05:51:47.307Z,11.00
2019-05-17T05:52:47.352Z,10.80
2019-05-17T05:53:47.255Z,9.40
2019-05-17T05:54:47.262Z,10.50
2019-05-17T05:55:47.192Z,10.40
2019-05-17T05:56:47.301Z,10.90
2019-05-17T05:57:47.133Z,9.90
2019-05-17T05:58:47.189Z,9.80
2019-05-17T05:59:47.083Z,9.60
2019-05-17T06:00:47.059Z,10.20
2019-05-17T06:01:47.073Z,9.30
2019-05-17T06:02:47.000Z,9.20
2019-05-17T06:03:46.983Z,8.90
2019-05-17T06:04:46.940Z,9.20
2019-05-17T06:05:46.945Z,9.20
2019-05-17T06:06:46.908Z,8.20
2019-05-17T06:07:46.937Z,8.60
2019-05-17T06:08:46.838Z,9.40
2019-05-17T06:09:46.796Z,8.40
2019-05-17T06:10:46.873Z,9.00
2019-05-17T06:11:46.739Z,8.70
2019-05-17T06:12:46.702Z,8.20
2019-05-17T06:13:46.654Z,8.60
2019-05-17T06:14:46.657Z,8.20
2019-05-17T06:15:46.646Z,8.80
2019-05-17T06:16:47.748Z,9.00
2019-05-17T06:17:46.627Z,8.30
2019-05-17T06:18:46.520Z,8.80
2019-05-17T06:19:46.481Z,9.20
2019-05-17T06:20:46.535Z,7.80
2019-05-17T06:21:46.500Z,7.80
2019-05-17T06:22:46.428Z,7.80
2019-05-17T06:23:46.447Z,8.20
2019-05-17T06:24:46.338Z,8.20
2019-05-17T06:25:46.346Z,7.40
2019-05-17T06:26:46.280Z,8.10
2019-05-17T06:27:46.271Z,7.80
2019-05-17T06:28:46.224Z,8.50
2019-05-17T06:29:46.185Z,7.50
2019-05-17T06:30:46.184Z,7.90
2019-05-17T06:31:46.165Z,7.40
2019-05-17T06:32:46.102Z,7.60
2019-05-17T06:33:46.072Z,7.10
2019-05-17T06:34:46.134Z,7.50
2019-05-17T06:35:46.013Z,7.50
2019-05-17T06:36:46.058Z,7.10
2019-05-17T06:37:45.960Z,6.60
2019-05-17T06:38:45.924Z,7.30
2019-05-17T06:39:45.887Z,6.80
2019-05-17T06:40:45.896Z,7.30
2019-05-17T06:41:45.906Z,6.60
2019-05-17T06:42:45.889Z,7.80
2019-05-17T06:43:45.829Z,6.90
2019-05-17T06:44:45.764Z,6.90
2019-05-17T06:45:45.734Z,6.90
2019-05-17T06:46:45.687Z,7.70
2019-05-17T06:47:45.663Z,7.00
2019-05-17T06:48:45.664Z,7.60
2019-05-17T06:49:45.604Z,7.40
2019-05-17T06:50:45.725Z,7.20
2019-05-17T06:51:45.546Z,7.00
2019-05-17T06:52:45.588Z,6.80
2019-05-17T06:53:45.474Z,7.00
2019-05-17T06:54:45.491Z,6.60
2019-05-17T06:55:45.461Z,6.60
2019-05-17T06:56:45.520Z,6.80
2019-05-17T06:57:45.376Z,7.10
2019-05-17T06:58:45.407Z,7.30
2019-05-17T06:59:45.338Z,7.60
2019-05-17T07:00:45.284Z,6.60
2019-05-17T07:01:45.327Z,6.40
2019-05-17T07:02:45.209Z,6.90
2019-05-17T07:03:45.256Z,7.10
2019-05-17T07:04:45.165Z,7.20
2019-05-17T07:05:45.143Z,7.00
2019-05-17T07:06:45.133Z,6.50
2019-05-17T07:07:45.102Z,6.70
2019-05-17T07:08:45.089Z,6.70
2019-05-17T07:09:45.061Z,6.60
2019-05-17T07:10:46.166Z,6.30
2019-05-17T07:11:44.985Z,6.30
2019-05-17T07:12:58.600Z,7.00
2019-05-17T07:13:44.910Z,6.80
2019-05-17T07:14:44.923Z,6.40
2019-05-17T07:15:47.994Z,6.70
2019-05-17T07:16:45.933Z,6.50
2019-05-17T07:17:44.825Z,6.00
2019-05-17T07:18:45.894Z,6.60
2019-05-17T07:19:44.731Z,6.40
2019-05-17T07:20:46.783Z,6.50
2019-05-17T07:21:44.661Z,6.40
2019-05-17T07:22:44.644Z,6.90
2019-05-17T07:23:44.591Z,6.70
2019-05-17T07:24:51.321Z,6.50
2019-05-17T07:25:44.524Z,7.10
2019-05-17T07:26:44.561Z,6.40
2019-05-17T07:27:45.939Z,6.60
2019-05-17T07:28:44.478Z,6.60
2019-05-17T07:29:44.478Z,6.20
2019-05-17T07:30:46.437Z,6.20
2019-05-17T07:31:44.359Z,6.20
2019-05-17T07:32:44.396Z,6.60
2019-05-17T07:33:44.311Z,6.40
2019-05-17T07:34:45.402Z,6.50
2019-05-17T07:35:44.241Z,5.90
2019-05-17T07:36:46.271Z,5.90
2019-05-17T07:37:44.189Z,5.50
2019-05-17T07:38:44.237Z,6.30
2019-05-17T07:39:56.651Z,5.50
2019-05-17T07:40:44.182Z,6.40
2019-05-17T07:41:44.139Z,5.90
2019-05-17T07:42:45.099Z,6.10
2019-05-17T07:43:44.002Z,5.70
2019-05-17T07:44:45.015Z,5.60
2019-05-17T07:45:43.961Z,5.80
2019-05-17T07:46:43.945Z,5.70
2019-05-17T07:47:43.885Z,6.50
2019-05-17T07:48:44.980Z,5.80
2019-05-17T07:49:43.868Z,5.70
2019-05-17T07:50:43.820Z,5.20
2019-05-17T07:51:43.761Z,5.30
2019-05-17T07:52:43.861Z,6.00
2019-05-17T07:53:43.727Z,5.60
2019-05-17T07:54:44.799Z,5.40
2019-05-17T07:55:43.709Z,5.20
2019-05-17T07:56:43.687Z,5.30
2019-05-17T07:57:43.604Z,5.60
2019-05-17T07:58:43.597Z,5.40
2019-05-17T07:59:43.564Z,5.90
2019-05-17T08:00:43.617Z,5.60
2019-05-17T08:01:43.504Z,5.50
2019-05-17T08:02:43.539Z,5.40
2019-05-17T08:03:43.409Z,5.20
2019-05-17T08:04:44.453Z,5.20
2019-05-17T08:05:43.375Z,5.70
2019-05-17T08:06:43.360Z,5.20
2019-05-17T08:07:43.290Z,5.10
2019-05-17T08:08:43.273Z,5.10
2019-05-17T08:09:43.264Z,5.10
2019-05-17T08:10:43.198Z,4.70
2019-05-17T08:11:43.290Z,4.60
2019-05-17T08:12:43.168Z,4.80
2019-05-17T08:13:43.131Z,4.40
2019-05-17T08:14:43.121Z,4.00
2019-05-17T08:15:43.080Z,4.30
2019-05-17T08:16:43.052Z,4.40
2019-05-17T08:17:43.007Z,4.20
2019-05-17T08:18:43.016Z,4.30
2019-05-17T08:19:42.937Z,4.10
2019-05-17T08:20:42.924Z,4.60
2019-05-17T08:21:42.880Z,4.00
2019-05-17T08:22:42.935Z,4.50
2019-05-17T08:23:42.832Z,4.70
2019-05-17T08:24:43.877Z,5.00
2019-05-17T08:25:52.593Z,4.60
2019-05-17T08:26:42.786Z,5.00
2019-05-17T08:27:42.715Z,4.80
2019-05-17T08:28:42.766Z,4.90
2019-05-17T08:29:42.672Z,5.00
2019-05-17T08:30:42.700Z,5.30
2019-05-17T08:31:42.589Z,4.90
2019-05-17T08:32:50.528Z,4.40
2019-05-17T08:33:42.531Z,5.20
2019-05-17T08:34:44.563Z,5.40
2019-05-17T08:35:42.470Z,5.20
2019-05-17T08:36:51.358Z,5.80
2019-05-17T08:37:42.757Z,5.60
2019-05-17T08:38:44.474Z,5.80
2019-05-17T08:39:42.359Z,5.40
2019-05-17T08:40:43.391Z,5.30
2019-05-17T08:41:42.312Z,7.80
2019-05-17T08:42:49.861Z,5.60
2019-05-17T08:43:46.727Z,5.40
2019-05-17T08:44:49.796Z,5.60
2019-05-17T08:45:42.168Z,5.50
2019-05-17T08:46:44.227Z,6.80
2019-05-17T08:47:42.114Z,5.40
2019-05-17T08:48:42.086Z,4.60
2019-05-17T08:49:42.072Z,6.00
2019-05-17T08:50:42.023Z,5.80
2019-05-17T08:51:43.044Z,5.40
2019-05-17T08:52:41.965Z,5.90
2019-05-17T08:53:42.053Z,5.80
2019-05-17T08:54:42.905Z,6.50
2019-05-17T08:55:41.982Z,6.00
2019-05-17T08:56:41.869Z,6.10
2019-05-17T08:57:44.008Z,6.30
2019-05-17T08:58:41.785Z,6.10
2019-05-17T08:59:41.851Z,6.30
2019-05-17T09:00:41.730Z,6.20
2019-05-17T09:01:42.048Z,6.40
2019-05-17T09:02:41.760Z,6.60
2019-05-17T09:03:41.679Z,6.10
2019-05-17T09:04:41.624Z,6.40
2019-05-17T09:05:42.076Z,6.10
2019-05-17T09:06:41.551Z,7.00
2019-05-17T09:07:41.606Z,6.30
2019-05-17T09:08:41.514Z,6.40
2019-05-17T09:09:41.523Z,6.90
2019-05-17T09:10:41.431Z,6.10
2019-05-17T09:11:41.428Z,6.40
2019-05-17T09:12:41.373Z,6.50
2019-05-17T09:13:58.015Z,6.90
2019-05-17T09:14:41.309Z,7.30
2019-05-17T09:15:42.437Z,7.20
2019-05-17T09:16:41.254Z,6.60
2019-05-17T09:17:43.304Z,6.50
2019-05-17T09:18:41.202Z,7.00
2019-05-17T09:19:43.224Z,6.60
2019-05-17T09:20:41.172Z,6.90
2019-05-17T09:21:41.187Z,6.50
2019-05-17T09:22:41.090Z,6.30
2019-05-17T09:23:42.121Z,6.60
2019-05-17T09:24:41.061Z,6.90
2019-05-17T09:25:43.061Z,7.10
2019-05-17T09:26:40.951Z,6.00
2019-05-17T09:27:41.022Z,7.30
2019-05-17T09:28:40.912Z,7.10
2019-05-17T09:29:41.962Z,6.90
2019-05-17T09:30:40.877Z,7.20
2019-05-17T09:31:40.848Z,6.30
2019-05-17T09:32:40.783Z,7.00
2019-05-17T09:33:41.794Z,6.40
2019-05-17T09:34:40.804Z,7.10
2019-05-17T09:35:49.775Z,7.10
2019-05-17T09:36:40.995Z,6.80
2019-05-17T09:37:41.624Z,6.30
2019-05-17T09:38:40.626Z,6.80
2019-05-17T09:39:42.660Z,7.40
2019-05-17T09:40:40.603Z,6.80
2019-05-17T09:41:40.626Z,6.80
2019-05-17T09:42:41.303Z,6.60
2019-05-17T09:43:40.490Z,7.10
2019-05-17T09:44:40.559Z,7.00
2019-05-17T09:45:40.776Z,6.60
2019-05-17T09:46:40.372Z,6.90
2019-05-17T09:47:40.343Z,6.80
2019-05-17T09:48:40.344Z,7.30
2019-05-17T09:49:40.289Z,7.30
2019-05-17T09:50:40.300Z,6.80
2019-05-17T09:51:40.245Z,6.40
2019-05-17T09:52:40.739Z,6.10
2019-05-17T09:53:40.266Z,6.40
2019-05-17T09:54:45.149Z,6.50
2019-05-17T09:55:40.125Z,5.50
2019-05-17T09:56:40.113Z,6.20
2019-05-17T09:57:40.797Z,5.70
2019-05-17T09:58:40.022Z,6.10
2019-05-17T09:59:49.614Z,6.30
2019-05-17T10:00:40.079Z,5.70
2019-05-17T10:01:40.983Z,5.50
2019-05-17T10:02:40.307Z,5.50
2019-05-17T10:03:56.852Z,5.60
2019-05-17T10:04:39.842Z,5.40
2019-05-17T10:05:41.957Z,6.00
2019-05-17T10:06:40.142Z,5.70
2019-05-17T10:07:50.757Z,5.80
2019-05-17T10:08:39.727Z,6.60
2019-05-17T10:09:40.126Z,6.00
2019-05-17T10:10:40.225Z,5.80
2019-05-17T10:11:41.766Z,6.90
2019-05-17T10:12:40.295Z,6.30
2019-05-17T10:13:39.624Z,6.40
2019-05-17T10:14:39.581Z,6.70
2019-05-17T10:15:40.821Z,6.70
2019-05-17T10:16:39.544Z,6.60
2019-05-17T10:17:40.583Z,7.00
2019-05-17T10:18:40.119Z,6.80
2019-05-17T10:19:40.176Z,6.90
2019-05-17T10:20:39.914Z,7.00
2019-05-17T10:21:46.387Z,6.60
2019-05-17T10:22:40.110Z,6.60
2019-05-17T10:23:46.368Z,6.70
2019-05-17T10:24:42.209Z,6.60
2019-05-17T10:25:40.050Z,6.40
2019-05-17T10:26:39.209Z,6.80
2019-05-17T10:27:40.808Z,6.20
2019-05-17T10:28:40.002Z,6.50
2019-05-17T10:29:39.534Z,6.50
2019-05-17T10:30:39.877Z,6.70
2019-05-17T10:31:40.111Z,7.10
2019-05-17T10:32:40.901Z,7.00
2019-05-17T10:33:40.234Z,6.90
2019-05-17T10:34:40.145Z,7.30
2019-05-17T10:35:40.639Z,7.10
2019-05-17T10:36:40.167Z,6.80
2019-05-17T10:37:40.706Z,7.40
2019-05-17T10:38:39.580Z,7.00
2019-05-17T10:39:41.511Z,7.60
2019-05-17T10:40:40.810Z,7.30
2019-05-17T10:41:40.909Z,7.60
2019-05-17T10:42:39.611Z,7.60
2019-05-17T10:43:39.257Z,7.50
2019-05-17T10:44:46.286Z,7.00
2019-05-17T10:45:40.022Z,6.80
2019-05-17T10:46:40.710Z,7.00
2019-05-17T10:47:39.700Z,7.20
2019-05-17T10:48:41.128Z,6.90
2019-05-17T10:49:40.175Z,7.10
2019-05-17T10:50:40.735Z,7.00
2019-05-17T10:51:40.234Z,6.50
2019-05-17T10:52:41.009Z,7.10
2019-05-17T10:53:40.270Z,6.20
2019-05-17T10:54:40.227Z,7.10
2019-05-17T10:55:39.715Z,7.00
2019-05-17T10:56:38.334Z,6.60
2019-05-17T10:57:38.317Z,6.30
2019-05-17T10:58:39.950Z,6.60
2019-05-17T10:59:39.358Z,6.50
2019-05-17T11:00:40.968Z,6.80
2019-05-17T11:01:39.350Z,7.10
2019-05-17T11:02:38.149Z,6.20
2019-05-17T11:03:39.721Z,6.30
2019-05-17T11:04:40.131Z,6.60
2019-05-17T11:05:40.328Z,6.40
2019-05-17T11:06:39.392Z,6.30
2019-05-17T11:07:39.102Z,6.90
2019-05-17T11:08:37.979Z,6.30
2019-05-17T11:09:40.131Z,6.70
2019-05-17T11:10:39.285Z,6.80
2019-05-17T11:11:37.997Z,6.60
2019-05-17T11:12:37.862Z,7.00
2019-05-17T11:13:37.911Z,8.00
2019-05-17T11:14:50.331Z,7.90
2019-05-17T11:15:38.854Z,7.10
2019-05-17T11:16:37.738Z,7.10
2019-05-17T11:17:37.809Z,6.90
2019-05-17T11:18:37.714Z,6.60
2019-05-17T11:19:37.690Z,6.20
2019-05-17T11:20:37.676Z,6.00
2019-05-17T11:21:38.603Z,6.30
2019-05-17T11:22:37.648Z,6.70
2019-05-17T11:23:37.601Z,6.80
2019-05-17T11:24:37.513Z,7.00
2019-05-17T11:25:44.633Z,7.20
2019-05-17T11:26:37.516Z,6.80
2019-05-17T11:27:38.455Z,6.60
2019-05-17T11:28:37.423Z,7.20
2019-05-17T11:29:37.364Z,6.80
2019-05-17T11:30:37.354Z,6.90
2019-05-17T11:31:37.346Z,6.60
2019-05-17T11:32:37.287Z,6.70
2019-05-17T11:33:37.266Z,7.00
2019-05-17T11:34:37.257Z,7.00
2019-05-17T11:35:44.778Z,7.20
2019-05-17T11:36:37.166Z,6.70
2019-05-17T11:37:37.148Z,6.50
2019-05-17T11:38:37.113Z,6.50
2019-05-17T11:39:37.110Z,6.90
2019-05-17T11:40:37.063Z,6.90
2019-05-17T11:41:37.123Z,6.30
2019-05-17T11:42:36.990Z,6.40
2019-05-17T11:43:37.068Z,6.10
2019-05-17T11:44:36.933Z,6.90
2019-05-17T11:45:36.949Z,5.90
2019-05-17T11:46:36.875Z,6.00
2019-05-17T11:47:36.984Z,6.10
2019-05-17T11:48:36.881Z,6.00
2019-05-17T11:49:36.877Z,5.70
2019-05-17T11:50:36.752Z,6.10
2019-05-17T11:51:36.786Z,6.80
2019-05-17T11:52:36.707Z,6.50
2019-05-17T11:53:36.697Z,6.40
2019-05-17T11:54:36.634Z,6.10
2019-05-17T11:55:36.789Z,5.60
2019-05-17T11:56:36.616Z,5.80
2019-05-17T11:57:36.614Z,5.90
2019-05-17T11:58:36.530Z,5.70
2019-05-17T11:59:36.625Z,5.50
2019-05-17T12:00:36.493Z,5.40
2019-05-17T12:01:36.557Z,5.40
2019-05-17T12:02:36.405Z,5.50
2019-05-17T12:03:36.456Z,5.00
2019-05-17T12:04:36.352Z,5.30
2019-05-17T12:05:37.402Z,5.50
2019-05-17T12:06:36.316Z,5.40
2019-05-17T12:07:37.403Z,5.50
2019-05-17T12:08:36.256Z,5.50
2019-05-17T12:09:37.706Z,6.10
2019-05-17T12:10:36.200Z,5.70
2019-05-17T12:11:36.204Z,5.80
2019-05-17T12:12:36.115Z,6.50
2019-05-17T12:13:36.116Z,6.30
2019-05-17T12:14:36.056Z,6.20
2019-05-17T12:15:45.044Z,6.20
2019-05-17T12:16:36.016Z,6.30
2019-05-17T12:17:38.092Z,6.40
2019-05-17T12:18:35.942Z,6.30
2019-05-17T12:19:37.232Z,6.70
2019-05-17T12:20:35.891Z,7.40
2019-05-17T12:21:35.973Z,6.60
2019-05-17T12:22:35.828Z,7.00
2019-05-17T12:23:35.875Z,7.10
2019-05-17T12:24:35.780Z,6.90
2019-05-17T12:25:35.805Z,7.10
2019-05-17T12:26:35.702Z,6.80
2019-05-17T12:27:35.713Z,6.40
2019-05-17T12:28:35.661Z,6.20
2019-05-17T12:29:35.736Z,6.50
2019-05-17T12:30:35.597Z,7.20
2019-05-17T12:31:36.658Z,7.30
2019-05-17T12:32:35.587Z,7.30
2019-05-17T12:33:35.523Z,6.90
2019-05-17T12:34:35.487Z,7.00
2019-05-17T12:35:35.562Z,6.80
2019-05-17T12:36:35.422Z,6.70
2019-05-17T12:37:35.565Z,7.10
2019-05-17T12:38:35.362Z,6.60
2019-05-17T12:39:36.339Z,6.30
2019-05-17T12:40:35.326Z,7.00
2019-05-17T12:41:35.292Z,7.20
2019-05-17T12:42:36.290Z,6.90
2019-05-17T12:43:35.311Z,7.10
2019-05-17T12:44:37.309Z,6.60
2019-05-17T12:45:35.228Z,6.70
2019-05-17T12:46:35.136Z,7.50
2019-05-17T12:47:35.139Z,7.00
2019-05-17T12:48:35.085Z,6.50
2019-05-17T12:49:36.076Z,7.80
2019-05-17T12:50:35.030Z,7.50
2019-05-17T12:51:35.127Z,5.50
2019-05-17T12:52:34.964Z,5.30
2019-05-17T12:53:34.975Z,5.10
2019-05-17T12:54:34.930Z,5.40
2019-05-17T12:55:34.992Z,5.20
2019-05-17T12:56:34.855Z,5.30
2019-05-17T12:57:34.912Z,6.20
2019-05-17T12:58:34.799Z,5.80
2019-05-17T12:59:34.819Z,5.20
2019-05-17T13:00:34.752Z,5.50
2019-05-17T13:01:34.728Z,5.10
2019-05-17T13:02:34.671Z,6.00
2019-05-17T13:03:34.736Z,5.50
2019-05-17T13:04:34.610Z,5.30
2019-05-17T13:05:43.351Z,5.20
2019-05-17T13:06:34.561Z,5.40
2019-05-17T13:07:34.574Z,4.90
2019-05-17T13:08:34.513Z,5.40
2019-05-17T13:09:35.492Z,6.30
2019-05-17T13:10:34.485Z,5.60
2019-05-17T13:11:34.420Z,4.50
2019-05-17T13:12:34.399Z,5.00
2019-05-17T13:13:34.394Z,4.70
2019-05-17T13:14:34.345Z,4.90
2019-05-17T13:15:34.522Z,4.90